Time;durP1;ratioP1;P1;durP2;ratioP2;P2;SDS_P1;SDS_P2;PMS_P1;PMS_P2;Temp;Humidity;BMP_temperature;BMP_pressure;BME280_temperature;BME280_humidity;BME280_pressure;Samples;Min_cycle;Max_cycle;Signal;HPM_P1;HPM_P2
2023/07/26 00:02:19;;;;;;;9.55;5.38;;;;;;;14.84;100.00;101017.25;5049466;28;20577;-75
2023/07/26 00:04:44;;;;;;;6.72;4.88;;;;;;;14.86;100.00;101026.00;5050803;28;20041;-74
2023/07/26 00:07:16;;;;;;;8.13;4.40;;;;;;;14.85;100.00;101022.47;5051413;28;20041;-73
2023/07/26 00:09:42;;;;;;;10.15;5.03;;;;;;;14.89;100.00;101017.72;5050053;28;20036;-74
2023/07/26 00:12:09;;;;;;;18.05;5.47;;;;;;;14.84;100.00;101026.16;5045713;28;20040;-74
2023/07/26 00:14:35;;;;;;;7.40;4.88;;;;;;;14.82;100.00;101028.09;5065941;28;20033;-74
2023/07/26 00:17:01;;;;;;;8.13;5.53;;;;;;;14.86;100.00;101015.28;5051344;28;20045;-74
2023/07/26 00:19:27;;;;;;;10.13;5.07;;;;;;;14.92;100.00;101022.88;5044116;28;20029;-74
2023/07/26 00:21:52;;;;;;;7.43;4.90;;;;;;;15.00;100.00;101025.78;5050080;28;20044;-73
2023/07/26 00:24:18;;;;;;;11.48;5.45;;;;;;;15.08;100.00;101020.69;5050547;28;20060;-74
2023/07/26 00:26:43;;;;;;;14.18;5.65;;;;;;;15.10;100.00;101029.47;5049839;28;20025;-73
2023/07/26 00:29:09;;;;;;;7.70;5.30;;;;;;;15.19;100.00;101022.50;5049145;28;20033;-74
2023/07/26 00:31:45;;;;;;;10.23;6.30;;;;;;;15.19;100.00;101020.66;5051045;28;20037;-74
2023/07/26 00:34:20;;;;;;;6.65;5.35;;;;;;;15.24;100.00;101031.06;5050548;28;20048;-74
2023/07/26 00:36:46;;;;;;;13.73;5.18;;;;;;;15.19;100.00;101034.09;5051432;28;20037;-74
2023/07/26 00:39:13;;;;;;;11.80;6.28;;;;;;;15.25;100.00;101035.44;5050725;28;20033;-73
2023/07/26 00:41:44;;;;;;;10.93;6.00;;;;;;;15.26;100.00;101040.72;5049899;28;20124;-74
2023/07/26 00:44:13;;;;;;;9.52;5.63;;;;;;;15.33;100.00;101038.38;5044204;28;20068;-73
2023/07/26 00:46:45;;;;;;;10.35;6.07;;;;;;;15.36;100.00;101039.94;5056565;28;20072;-73
2023/07/26 00:49:13;;;;;;;11.55;6.60;;;;;;;15.25;100.00;101035.44;5052125;28;20125;-73
2023/07/26 00:51:39;;;;;;;12.15;5.70;;;;;;;15.33;100.00;101034.84;5049690;28;20142;-73
2023/07/26 00:54:08;;;;;;;9.50;6.25;;;;;;;15.37;100.00;101030.94;5047286;28;20045;-73
2023/07/26 00:56:35;;;;;;;14.27;6.75;;;;;;;15.27;100.00;101036.19;5078360;28;20037;-73
2023/07/26 00:59:02;;;;;;;12.18;5.63;;;;;;;15.40;100.00;101038.72;5047920;28;20036;-73
2023/07/26 01:01:27;;;;;;;18.38;6.57;;;;;;;15.25;100.00;101048.88;5048488;28;20130;-73
2023/07/26 01:03:53;;;;;;;10.15;7.75;;;;;;;15.18;100.00;101040.47;5049076;28;20048;-73
2023/07/26 01:06:42;;;;;;;10.70;6.85;;;;;;;15.15;100.00;101040.69;5040636;28;20450;-73
2023/07/26 01:09:13;;;;;;;8.88;6.93;;;;;;;15.05;100.00;101044.22;5039207;28;20033;-73
2023/07/26 01:11:49;;;;;;;11.95;7.63;;;;;;;15.14;100.00;101036.28;5048032;28;20044;-72
2023/07/26 01:14:30;;;;;;;9.52;7.03;;;;;;;14.99;100.00;101026.78;5046395;28;20076;-73
2023/07/26 01:16:56;;;;;;;9.73;6.72;;;;;;;14.86;100.00;101021.53;5047986;28;20040;-72
2023/07/26 01:19:21;;;;;;;9.30;6.40;;;;;;;14.96;100.00;101018.94;5046781;28;20048;-73
2023/07/26 01:21:47;;;;;;;8.85;6.05;;;;;;;14.98;100.00;101017.00;5048596;28;21067;-73
2023/07/26 01:24:13;;;;;;;8.32;5.68;;;;;;;14.85;100.00;101018.94;5044940;28;20592;-73
2023/07/26 01:26:38;;;;;;;11.50;5.80;;;;;;;14.60;100.00;101007.44;5030272;28;20548;-73
2023/07/26 01:29:04;;;;;;;6.28;5.65;;;;;;;14.64;100.00;101013.44;5045241;28;20837;-73
2023/07/26 01:31:30;;;;;;;7.40;5.68;;;;;;;14.60;100.00;101009.25;5044105;28;20044;-73
2023/07/26 01:33:58;;;;;;;7.60;5.43;;;;;;;14.49;100.00;101010.09;5049364;28;20045;-73
2023/07/26 01:36:26;;;;;;;7.22;6.00;;;;;;;14.46;100.00;101019.22;5064598;28;20047;-73
2023/07/26 01:38:53;;;;;;;10.75;6.30;;;;;;;14.46;100.00;101021.06;5048227;28;20042;-72
2023/07/26 01:41:19;;;;;;;6.95;6.13;;;;;;;14.41;100.00;101012.50;5041383;28;20036;-72
2023/07/26 01:43:45;;;;;;;8.20;5.55;;;;;;;14.35;100.00;101015.63;5045572;28;20930;-73
2023/07/26 01:46:15;;;;;;;7.07;6.00;;;;;;;14.27;100.00;101015.38;5044325;28;20033;-73
2023/07/26 01:48:43;;;;;;;7.60;5.57;;;;;;;14.25;100.00;101015.47;5050146;28;20029;-73
2023/07/26 01:51:09;;;;;;;7.13;5.95;;;;;;;14.23;100.00;101022.78;5047542;28;20277;-73
2023/07/26 01:53:37;;;;;;;6.35;5.20;;;;;;;14.19;100.00;101019.47;5074462;27;21003;-73
2023/07/26 01:56:03;;;;;;;8.25;5.40;;;;;;;14.20;100.00;101023.88;5046990;28;20454;-73
2023/07/26 01:58:29;;;;;;;8.52;5.93;;;;;;;14.16;100.00;101029.59;5047555;28;20033;-73
2023/07/26 02:00:55;;;;;;;9.13;5.05;;;;;;;14.16;100.00;101022.41;5041659;28;20036;-73
2023/07/26 02:03:22;;;;;;;9.77;5.93;;;;;;;13.99;100.00;101029.03;5048810;28;20044;-72
2023/07/26 02:05:47;;;;;;;7.95;5.40;;;;;;;14.00;100.00;101035.25;5049413;28;20068;-72
2023/07/26 02:08:13;;;;;;;7.07;5.22;;;;;;;14.01;100.00;101034.28;5047224;28;20207;-73
2023/07/26 02:10:43;;;;;;;9.63;6.18;;;;;;;13.98;100.00;101035.38;5030367;28;20115;-74
2023/07/26 02:13:09;;;;;;;7.03;5.53;;;;;;;13.95;100.00;101040.09;5047999;28;20052;-74
2023/07/26 02:15:35;;;;;;;7.75;5.80;;;;;;;13.93;100.00;101037.53;5047622;28;20033;-73
2023/07/26 02:18:02;;;;;;;8.85;5.20;;;;;;;13.94;100.00;101038.38;5055885;28;20068;-73
2023/07/26 02:20:29;;;;;;;9.07;6.15;;;;;;;13.88;100.00;101036.16;5047907;28;20114;-73
2023/07/26 02:22:56;;;;;;;6.70;5.70;;;;;;;13.83;100.00;101036.50;5079979;28;20044;-74
2023/07/26 02:25:22;;;;;;;8.85;5.93;;;;;;;13.84;100.00;101040.03;5057335;28;20064;-74
2023/07/26 02:27:47;;;;;;;7.90;5.80;;;;;;;13.85;100.00;101036.38;5045066;28;20048;-74
2023/07/26 02:30:13;;;;;;;8.85;5.55;;;;;;;13.88;100.00;101038.84;5030194;28;20033;-74
2023/07/26 02:32:42;;;;;;;10.20;6.53;;;;;;;13.82;100.00;101037.47;5036318;28;20033;-74
2023/07/26 02:35:11;;;;;;;7.57;6.32;;;;;;;13.80;100.00;101031.34;5045593;28;20048;-74
2023/07/26 02:37:37;;;;;;;7.55;6.50;;;;;;;13.78;100.00;101037.81;5045851;28;20051;-74
2023/07/26 02:40:03;;;;;;;10.82;6.88;;;;;;;13.74;100.00;101024.63;5041598;28;20057;-74
2023/07/26 02:42:29;;;;;;;11.45;7.57;;;;;;;13.56;100.00;101028.69;5043344;28;20045;-74
2023/07/26 02:44:55;;;;;;;8.63;7.10;;;;;;;13.64;100.00;101028.09;5032294;28;20068;-74
2023/07/26 02:47:20;;;;;;;7.80;6.82;;;;;;;13.59;100.00;101020.41;5046994;28;20275;-73
2023/07/26 02:49:46;;;;;;;11.45;7.85;;;;;;;13.52;100.00;101021.81;5044018;28;20033;-74
2023/07/26 02:52:14;;;;;;;9.35;6.32;;;;;;;13.49;100.00;101024.72;5060172;28;20131;-74
2023/07/26 02:54:48;;;;;;;8.32;7.03;;;;;;;13.46;100.00;101024.94;5057327;28;20057;-74
2023/07/26 02:57:13;;;;;;;10.52;7.95;;;;;;;13.38;100.00;101022.81;5043280;28;20041;-74
2023/07/26 02:59:44;;;;;;;9.32;7.18;;;;;;;13.30;100.00;101029.69;5042335;28;20043;-74
2023/07/26 03:02:11;;;;;;;9.35;7.50;;;;;;;13.27;100.00;101036.13;5079676;27;20569;-73
2023/07/26 03:04:37;;;;;;;9.38;7.85;;;;;;;13.24;100.00;101030.13;5043288;28;20052;-74
2023/07/26 03:07:03;;;;;;;11.45;8.23;;;;;;;13.17;100.00;101038.56;5040985;28;20040;-74
2023/07/26 03:09:28;;;;;;;11.75;8.27;;;;;;;13.07;100.00;101028.63;5047851;28;20145;-73
2023/07/26 03:11:54;;;;;;;12.02;8.73;;;;;;;13.14;100.00;101028.06;5062997;28;20032;-74
2023/07/26 03:14:20;;;;;;;14.00;9.80;;;;;;;13.06;100.00;101033.13;5054755;28;20794;-74
2023/07/26 03:16:45;;;;;;;11.82;9.73;;;;;;;13.05;100.00;101039.47;5081753;28;20040;-74
2023/07/26 03:19:20;;;;;;;12.80;10.52;;;;;;;13.06;100.00;101034.97;5048240;28;20041;-74
2023/07/26 03:21:46;;;;;;;19.35;11.70;;;;;;;12.99;100.00;101034.50;5048381;28;20565;-73
2023/07/26 03:24:15;;;;;;;17.75;12.82;;;;;;;12.97;100.00;101039.13;5045403;28;20052;-74
2023/07/26 03:26:44;;;;;;;19.05;14.13;;;;;;;12.95;100.00;101041.91;5045587;28;20034;-74
2023/07/26 03:29:12;;;;;;;19.27;14.30;;;;;;;12.98;100.00;101039.97;5042543;28;20082;-73
2023/07/26 03:31:38;;;;;;;18.38;14.43;;;;;;;12.96;100.00;101048.13;5048520;28;20025;-73
2023/07/26 03:34:03;;;;;;;19.92;14.27;;;;;;;12.92;100.00;101055.50;5046440;28;20037;-74
2023/07/26 03:36:29;;;;;;;18.60;13.88;;;;;;;12.86;100.00;101061.28;5047713;28;20037;-74
2023/07/26 03:38:55;;;;;;;18.77;13.50;;;;;;;12.84;100.00;101054.31;5046908;28;20132;-74
2023/07/26 03:41:23;;;;;;;22.02;14.32;;;;;;;12.79;100.00;101053.78;5046865;28;20569;-74
2023/07/26 03:43:52;;;;;;;22.00;14.52;;;;;;;12.74;100.00;101055.91;5061973;28;20045;-73
2023/07/26 03:46:18;;;;;;;20.00;14.80;;;;;;;12.67;100.00;101060.84;5045667;28;20037;-74
2023/07/26 03:48:44;;;;;;;18.77;14.38;;;;;;;12.66;100.00;101061.81;5045837;28;20124;-74
2023/07/26 03:51:14;;;;;;;18.33;14.63;;;;;;;12.57;100.00;101068.66;5046536;28;20069;-73
2023/07/26 03:53:43;;;;;;;21.90;15.23;;;;;;;12.66;100.00;101059.13;5044484;28;20081;-74
2023/07/26 03:56:08;;;;;;;21.67;16.80;;;;;;;12.63;100.00;101059.34;5046306;28;20124;-73
2023/07/26 03:58:34;;;;;;;25.23;16.52;;;;;;;12.69;100.00;101058.91;5045096;28;20525;-74
2023/07/26 04:01:00;;;;;;;24.20;18.10;;;;;;;12.58;100.00;101056.13;5044998;28;20555;-74
2023/07/26 04:03:25;;;;;;;23.95;17.67;;;;;;;12.70;100.00;101060.63;5059584;28;20485;-74
2023/07/26 04:05:51;;;;;;;22.90;18.00;;;;;;;12.77;100.00;101058.41;5045477;28;20044;-74
2023/07/26 04:08:16;;;;;;;27.00;17.55;;;;;;;13.01;100.00;101055.84;5044439;28;20772;-74
2023/07/26 04:10:45;;;;;;;24.85;18.20;;;;;;;13.52;100.00;101053.97;5078167;28;20525;-74
2023/07/26 04:13:15;;;;;;;20.65;16.73;;;;;;;14.05;100.00;101056.34;5078476;27;20091;-74
2023/07/26 04:15:43;;;;;;;22.35;17.52;;;;;;;14.66;100.00;101038.31;5046661;28;20158;-74
2023/07/26 04:18:08;;;;;;;25.85;17.48;;;;;;;15.29;100.00;101037.75;5042689;28;20034;-74
2023/07/26 04:20:35;;;;;;;20.27;17.25;;;;;;;15.59;100.00;101041.66;5048892;28;20029;-72
2023/07/26 04:23:00;;;;;;;19.90;16.25;;;;;;;16.07;100.00;101044.00;5047676;28;20076;-74
2023/07/26 04:25:26;;;;;;;22.85;17.33;;;;;;;16.48;100.00;101035.13;5048499;28;20029;-74
2023/07/26 04:27:51;;;;;;;21.80;15.80;;;;;;;16.59;100.00;101036.91;5050071;28;20782;-74
2023/07/26 04:30:17;;;;;;;19.33;16.02;;;;;;;16.88;100.00;101039.81;5047957;28;20037;-73
2023/07/26 04:32:43;;;;;;;17.88;15.68;;;;;;;16.45;100.00;101042.59;5050497;28;20033;-73
2023/07/26 04:35:09;;;;;;;20.65;15.65;;;;;;;16.74;100.00;101041.00;5050783;28;20045;-74
2023/07/26 04:37:34;;;;;;;19.33;13.95;;;;;;;16.90;99.87;101040.53;5049598;28;20421;-74
2023/07/26 04:40:00;;;;;;;19.13;16.25;;;;;;;16.44;100.00;101041.75;5032454;28;20040;-74
2023/07/26 04:42:25;;;;;;;17.50;14.45;;;;;;;16.55;100.00;101046.22;5045320;28;20037;-73
2023/07/26 04:44:51;;;;;;;19.15;15.05;;;;;;;17.59;99.88;101043.38;5049731;28;20042;-74
2023/07/26 04:47:18;;;;;;;18.27;14.25;;;;;;;18.71;92.17;101032.28;5048838;28;20041;-74
2023/07/26 04:49:44;;;;;;;15.65;13.02;;;;;;;19.59;84.16;101030.97;5046083;28;20028;-74
2023/07/26 04:52:15;;;;;;;17.75;13.25;;;;;;;20.21;79.79;101033.81;5049845;28;20565;-73
2023/07/26 04:54:43;;;;;;;14.63;12.70;;;;;;;19.57;79.96;101043.75;5050305;28;20119;-74
2023/07/26 04:57:09;;;;;;;17.25;13.18;;;;;;;18.77;85.03;101042.50;5065173;28;20036;-74
2023/07/26 04:59:34;;;;;;;15.63;12.57;;;;;;;18.41;89.35;101041.38;5051143;28;20040;-73
2023/07/26 05:02:00;;;;;;;16.77;13.30;;;;;;;18.40;90.91;101047.78;5051693;28;20037;-73
2023/07/26 05:04:26;;;;;;;15.77;12.55;;;;;;;18.64;90.83;101040.06;5048599;28;20039;-73
2023/07/26 05:06:51;;;;;;;18.05;13.13;;;;;;;18.60;89.20;101042.22;5041481;28;20860;-73
2023/07/26 05:09:17;;;;;;;12.73;11.43;;;;;;;18.47;90.24;101030.84;5039765;28;20030;-73
2023/07/26 05:11:43;;;;;;;15.45;12.80;;;;;;;18.35;90.77;101038.25;5045042;28;20574;-73
2023/07/26 05:14:08;;;;;;;17.55;12.75;;;;;;;17.93;92.86;101036.81;5046797;28;20455;-73
2023/07/26 05:16:34;;;;;;;16.20;12.63;;;;;;;17.37;96.77;101043.59;5079621;27;20033;-72
2023/07/26 05:19:00;;;;;;;14.38;12.88;;;;;;;17.15;100.00;101038.41;5042612;28;20053;-72
2023/07/26 05:21:25;;;;;;;17.60;13.45;;;;;;;16.90;100.00;101031.59;5043219;28;20045;-72
2023/07/26 05:23:51;;;;;;;21.27;14.18;;;;;;;17.00;100.00;101036.06;5041333;28;20470;-72
2023/07/26 05:26:17;;;;;;;16.17;13.23;;;;;;;16.78;100.00;101044.31;5046919;28;20037;-71
2023/07/26 05:28:43;;;;;;;16.95;13.27;;;;;;;17.14;100.00;101036.69;5046204;28;20904;-73
2023/07/26 05:31:09;;;;;;;21.13;13.93;;;;;;;17.68;100.00;101033.63;5041423;28;20030;-73
2023/07/26 05:33:36;;;;;;;16.50;13.25;;;;;;;17.73;100.00;101044.88;5046337;28;20032;-73
2023/07/26 05:36:02;;;;;;;18.02;14.20;;;;;;;18.09;98.54;101046.06;5046176;28;20070;-73
2023/07/26 05:38:27;;;;;;;19.85;13.55;;;;;;;18.24;97.37;101042.94;5047863;28;20585;-72
2023/07/26 05:41:02;;;;;;;16.38;13.82;;;;;;;18.82;95.75;101040.19;5056994;28;20106;-73
2023/07/26 05:43:27;;;;;;;19.88;15.95;;;;;;;19.37;90.83;101035.75;5059563;28;20049;-73
2023/07/26 05:45:53;;;;;;;17.90;13.40;;;;;;;19.96;86.29;101030.03;5051623;28;20033;-73
2023/07/26 05:48:18;;;;;;;13.63;12.20;;;;;;;19.82;82.81;101034.94;5046699;28;20029;-74
2023/07/26 05:50:47;;;;;;;15.63;12.73;;;;;;;19.83;85.43;101038.50;5046338;28;24503;-74
2023/07/26 05:53:16;;;;;;;17.05;12.63;;;;;;;19.77;83.82;101047.25;5064037;28;20045;-74
2023/07/26 05:55:45;;;;;;;18.05;13.27;;;;;;;19.92;83.33;101035.75;5043931;28;20033;-74
2023/07/26 05:58:11;;;;;;;20.90;12.57;;;;;;;19.52;84.68;101036.09;5041974;28;20036;-74
2023/07/26 06:00:46;;;;;;;14.10;12.23;;;;;;;19.94;83.50;101034.75;5043699;28;20095;-73
2023/07/26 06:03:17;;;;;;;16.30;11.98;;;;;;;20.01;83.56;101036.69;5048696;28;20047;-74
2023/07/26 06:05:44;;;;;;;14.83;11.80;;;;;;;19.93;83.43;101036.63;5050111;28;20033;-73
2023/07/26 06:08:14;;;;;;;18.00;12.10;;;;;;;20.11;82.89;101040.16;5037308;28;20385;-73
2023/07/26 06:10:40;;;;;;;15.07;11.82;;;;;;;19.97;81.87;101043.41;5081356;28;20041;-74
2023/07/26 06:13:12;;;;;;;17.95;12.80;;;;;;;20.13;82.63;101038.19;5047101;28;20943;-74
2023/07/26 06:15:44;;;;;;;16.60;12.85;;;;;;;20.35;84.11;101039.56;5029800;28;20915;-74
2023/07/26 06:18:13;;;;;;;14.68;11.75;;;;;;;20.34;79.78;101043.28;5029042;28;20025;-74
2023/07/26 06:20:44;;;;;;;15.05;12.32;;;;;;;19.67;81.99;101045.44;5045286;28;20052;-74
2023/07/26 06:23:15;;;;;;;14.43;11.52;;;;;;;19.79;84.25;101045.25;5063292;28;20052;-73
2023/07/26 06:25:43;;;;;;;15.38;11.55;;;;;;;20.35;82.72;101033.28;5041891;28;20140;-74
2023/07/26 06:28:09;;;;;;;13.60;10.85;;;;;;;20.39;79.92;101032.81;5046636;28;20041;-73
2023/07/26 06:30:35;;;;;;;14.85;11.05;;;;;;;20.71;81.97;101031.41;5045832;28;20044;-73
2023/07/26 06:33:01;;;;;;;12.77;11.35;;;;;;;21.01;78.03;101035.50;5043531;28;20029;-74
2023/07/26 06:35:26;;;;;;;15.85;11.00;;;;;;;21.25;76.79;101047.50;5023508;28;20495;-73
2023/07/26 06:37:52;;;;;;;12.10;10.70;;;;;;;21.12;76.88;101056.06;5042907;28;20088;-74
2023/07/26 06:40:17;;;;;;;14.93;10.90;;;;;;;21.36;76.31;101067.09;5047186;28;20037;-74
2023/07/26 06:42:44;;;;;;;13.02;10.95;;;;;;;21.36;73.84;101067.09;5073819;28;20040;-74
2023/07/26 06:45:10;;;;;;;16.63;10.35;;;;;;;21.70;72.95;101075.22;5064001;28;20116;-73
2023/07/26 06:47:36;;;;;;;13.65;10.52;;;;;;;21.63;72.11;101078.72;5079862;27;20037;-74
2023/07/26 06:50:02;;;;;;;13.98;10.82;;;;;;;21.14;72.74;101081.19;5044638;28;20037;-73
2023/07/26 06:52:30;;;;;;;15.35;11.00;;;;;;;20.69;75.13;101099.31;5048355;28;20025;-73
2023/07/26 06:54:56;;;;;;;13.52;10.48;;;;;;;20.53;78.78;101099.16;5038481;28;20546;-74
2023/07/26 06:57:22;;;;;;;13.65;10.95;;;;;;;19.89;81.58;101101.03;5048113;28;20048;-74
2023/07/26 06:59:48;;;;;;;14.35;11.45;;;;;;;19.52;83.06;101103.72;5048031;28;20088;-74
2023/07/26 07:02:13;;;;;;;15.27;11.95;;;;;;;19.35;85.12;101104.50;5034131;28;20033;-74
2023/07/26 07:04:44;;;;;;;15.80;12.07;;;;;;;19.53;86.49;101109.97;5047564;28;20441;-74
2023/07/26 07:07:09;;;;;;;19.17;11.95;;;;;;;19.40;90.13;101107.63;5048684;28;20912;-73
2023/07/26 07:09:36;;;;;;;20.77;11.32;;;;;;;19.52;88.71;101105.56;5040890;28;20033;-73
2023/07/26 07:12:01;;;;;;;15.45;11.70;;;;;;;19.35;88.26;101105.38;5047200;28;20048;-73
2023/07/26 07:14:27;;;;;;;20.73;12.48;;;;;;;19.44;90.90;101109.03;5047655;28;20041;-73
2023/07/26 07:16:53;;;;;;;16.40;10.95;;;;;;;19.69;91.55;101110.25;5047651;28;20041;-73
2023/07/26 07:19:18;;;;;;;15.05;11.55;;;;;;;19.55;89.27;101122.38;5048402;28;20029;-73
2023/07/26 07:21:44;;;;;;;15.40;11.50;;;;;;;19.32;90.33;101108.34;5044141;28;20036;-73
2023/07/26 07:24:10;;;;;;;16.35;12.23;;;;;;;19.35;90.25;101116.19;5044468;28;20044;-73
2023/07/26 07:26:36;;;;;;;18.25;12.23;;;;;;;19.39;90.36;101120.31;5046369;28;20069;-73
2023/07/26 07:29:01;;;;;;;17.90;12.30;;;;;;;19.17;91.10;101127.91;5044489;28;20037;-73
2023/07/26 07:31:27;;;;;;;18.60;12.95;;;;;;;19.07;93.50;101136.03;5047884;28;20033;-73
2023/07/26 07:33:52;;;;;;;18.60;13.00;;;;;;;19.16;92.42;101135.16;5062597;28;20041;-73
2023/07/26 07:36:19;;;;;;;19.30;13.75;;;;;;;18.90;92.60;101145.72;5049674;28;20160;-74
2023/07/26 07:38:47;;;;;;;19.05;14.68;;;;;;;18.62;95.58;101150.09;5028171;28;20042;-74
2023/07/26 07:41:16;;;;;;;20.63;14.27;;;;;;;18.26;99.95;101147.09;5027587;28;20639;-74
2023/07/26 07:43:42;;;;;;;23.63;15.07;;;;;;;18.33;100.00;101150.94;5046495;28;20044;-74
2023/07/26 07:46:07;;;;;;;24.20;14.85;;;;;;;18.06;100.00;101150.75;5045768;28;20056;-73
2023/07/26 07:48:34;;;;;;;19.75;14.82;;;;;;;17.84;100.00;101162.63;5045350;28;20041;-74
2023/07/26 07:51:00;;;;;;;17.08;14.02;;;;;;;17.51;100.00;101159.16;5042547;28;20104;-73
2023/07/26 07:53:25;;;;;;;23.85;15.65;;;;;;;17.46;100.00;101177.56;5043016;28;20037;-73
2023/07/26 07:55:52;;;;;;;23.02;16.80;;;;;;;16.78;100.00;101187.03;5044095;28;20349;-74
2023/07/26 07:58:17;;;;;;;27.90;17.15;;;;;;;16.66;100.00;101190.72;5042611;28;20037;-73
2023/07/26 08:00:43;;;;;;;25.40;16.70;;;;;;;16.45;100.00;101193.34;5048745;28;20737;-73
2023/07/26 08:03:09;;;;;;;26.10;18.35;;;;;;;16.19;100.00;101192.81;5031917;28;20037;-72
2023/07/26 08:05:35;;;;;;;24.27;16.27;;;;;;;16.12;100.00;101200.53;5038117;28;20124;-72
2023/07/26 08:08:01;;;;;;;25.08;16.73;;;;;;;15.82;100.00;101211.06;5047817;28;20067;-72
2023/07/26 08:10:27;;;;;;;21.48;12.73;;;;;;;15.40;100.00;101211.56;5043408;28;20044;-71
2023/07/26 08:12:52;;;;;;;15.95;10.57;;;;;;;15.15;100.00;101204.56;5049430;28;20135;-72
2023/07/26 08:15:18;;;;;;;11.85;8.55;;;;;;;15.20;100.00;101198.81;5049300;28;20720;-71
2023/07/26 08:17:44;;;;;;;8.85;6.70;;;;;;;15.34;100.00;101187.88;5049570;28;20509;-71
2023/07/26 08:20:13;;;;;;;8.35;4.90;;;;;;;15.52;100.00;101181.06;5031784;28;20033;-71
2023/07/26 08:22:42;;;;;;;8.35;4.72;;;;;;;15.57;100.00;101155.66;5048895;28;20029;-72
2023/07/26 08:25:09;;;;;;;4.93;3.92;;;;;;;15.83;100.00;101143.69;5040188;28;20036;-71
2023/07/26 08:27:35;;;;;;;7.22;4.47;;;;;;;15.94;100.00;101130.22;5078151;28;20639;-71
2023/07/26 08:30:01;;;;;;;4.97;3.80;;;;;;;16.08;100.00;101129.13;5054838;28;20716;-71
2023/07/26 08:32:30;;;;;;;5.00;3.63;;;;;;;16.34;100.00;101132.34;5048109;28;20033;-71
2023/07/26 08:34:55;;;;;;;7.47;3.92;;;;;;;16.52;100.00;101133.50;5047618;28;20064;-71
2023/07/26 08:37:21;;;;;;;3.95;3.60;;;;;;;16.62;100.00;101138.09;5048150;28;20119;-71
2023/07/26 08:39:47;;;;;;;5.63;4.32;;;;;;;17.11;100.00;101137.50;5049090;28;20037;-71
2023/07/26 08:42:18;;;;;;;5.72;4.63;;;;;;;17.71;100.00;101140.38;5048805;28;20041;-72
2023/07/26 08:44:52;;;;;;;8.13;4.63;;;;;;;18.20;100.00;101144.97;5043103;28;20041;-71
2023/07/26 08:47:19;;;;;;;4.80;4.18;;;;;;;18.60;100.00;101142.16;5047068;28;20668;-71
2023/07/26 08:49:48;;;;;;;4.38;3.95;;;;;;;19.26;100.00;101132.44;5054532;28;20033;-71
2023/07/26 08:52:18;;;;;;;5.05;4.55;;;;;;;19.87;100.00;101130.06;5047859;28;20124;-72
2023/07/26 08:54:47;;;;;;;4.65;3.83;;;;;;;19.95;100.00;101123.94;5042821;28;20048;-72
2023/07/26 08:57:18;;;;;;;4.57;3.03;;;;;;;19.40;100.00;101121.16;5049901;28;20839;-71
2023/07/26 08:59:46;;;;;;;3.85;2.60;;;;;;;19.66;100.00;101122.22;5045456;28;20145;-72
2023/07/26 09:02:16;;;;;;;4.32;2.72;;;;;;;19.90;100.00;101124.38;5046717;28;20029;-72
2023/07/26 09:04:50;;;;;;;2.55;2.15;;;;;;;20.09;100.00;101117.16;5044620;28;20045;-72
2023/07/26 09:07:19;;;;;;;4.35;2.53;;;;;;;19.84;97.35;101121.44;5050565;28;20049;-72
2023/07/26 09:09:45;;;;;;;3.60;2.22;;;;;;;20.22;99.09;101112.19;5046004;28;20041;-72
2023/07/26 09:12:23;;;;;;;2.55;1.90;;;;;;;20.33;97.35;101116.53;5044861;28;20036;-72
2023/07/26 09:14:53;;;;;;;3.13;2.30;;;;;;;20.15;95.98;101111.13;5047154;28;20112;-71
2023/07/26 09:17:18;;;;;;;3.88;2.30;;;;;;;20.25;100.00;101113.75;5041520;28;20039;-72
2023/07/26 09:19:45;;;;;;;3.53;2.38;;;;;;;19.98;90.07;101118.22;5077212;28;20036;-72
2023/07/26 09:22:17;;;;;;;4.60;2.47;;;;;;;20.08;92.03;101116.31;5062027;28;20124;-72
2023/07/26 09:24:49;;;;;;;3.25;2.72;;;;;;;20.28;92.72;101108.03;5037728;28;20033;-72
2023/07/26 09:27:15;;;;;;;4.10;3.10;;;;;;;20.34;89.63;101110.16;5080332;28;20154;-72
2023/07/26 09:29:54;;;;;;;3.30;3.00;;;;;;;20.45;92.41;101115.31;5045457;28;20079;-72
2023/07/26 09:32:26;;;;;;;5.93;3.88;;;;;;;20.49;94.27;101110.50;5052525;28;20035;-72
2023/07/26 09:34:52;;;;;;;6.72;4.97;;;;;;;20.43;88.61;101107.38;5023248;28;20029;-72
2023/07/26 09:37:21;;;;;;;10.25;6.03;;;;;;;20.69;89.96;101101.19;5052581;28;20040;-72
2023/07/26 09:39:46;;;;;;;8.20;6.28;;;;;;;20.91;91.46;101095.25;5045318;28;20155;-72
2023/07/26 09:42:13;;;;;;;9.68;6.03;;;;;;;20.99;91.55;101090.91;5046089;28;20523;-72
2023/07/26 09:44:45;;;;;;;8.13;7.22;;;;;;;20.44;92.60;101091.94;5039027;28;20038;-72
2023/07/26 09:47:16;;;;;;;8.50;6.80;;;;;;;21.04;89.73;101102.13;5045865;28;20041;-72
2023/07/26 09:49:51;;;;;;;7.93;6.45;;;;;;;21.05;88.62;101084.84;5028298;28;20697;-73
2023/07/26 09:52:19;;;;;;;10.85;7.15;;;;;;;20.80;87.41;101097.38;5044775;28;20029;-72
2023/07/26 09:54:46;;;;;;;10.15;7.95;;;;;;;20.77;87.12;101090.38;5060012;28;20041;-72
2023/07/26 09:57:15;;;;;;;9.32;7.50;;;;;;;20.76;88.89;101082.41;5045880;28;20037;-72
2023/07/26 09:59:46;;;;;;;10.25;8.25;;;;;;;20.93;93.28;101092.38;5046512;28;20723;-72
2023/07/26 10:02:12;;;;;;;11.20;8.95;;;;;;;20.91;91.86;101094.41;5047158;28;20032;-72
2023/07/26 10:04:45;;;;;;;11.85;8.18;;;;;;;21.11;89.23;101092.34;5043758;28;20045;-72
2023/07/26 10:07:14;;;;;;;12.02;7.80;;;;;;;21.42;88.35;101082.69;5036054;28;20048;-72
2023/07/26 10:09:46;;;;;;;11.20;7.97;;;;;;;21.67;81.15;101091.81;5043185;28;20859;-72
2023/07/26 10:12:16;;;;;;;11.45;8.35;;;;;;;22.25;78.89;101094.75;5053274;28;20566;-73
2023/07/26 10:14:42;;;;;;;10.98;8.07;;;;;;;21.72;80.23;101099.47;5045110;28;20025;-73
2023/07/26 10:17:11;;;;;;;11.85;8.23;;;;;;;21.11;78.49;101101.31;5045048;28;20048;-72
2023/07/26 10:19:42;;;;;;;11.75;7.55;;;;;;;21.58;83.64;101094.66;5043190;28;20033;-72
2023/07/26 10:22:08;;;;;;;11.43;7.40;;;;;;;21.40;81.17;101092.03;5048697;28;20041;-73
2023/07/26 10:24:36;;;;;;;13.60;7.70;;;;;;;21.16;78.79;101095.41;5044303;28;20503;-72
2023/07/26 10:27:01;;;;;;;9.88;6.75;;;;;;;21.92;79.69;101087.31;5048973;28;20549;-72
2023/07/26 10:29:27;;;;;;;11.50;6.93;;;;;;;22.17;78.96;101087.41;5047441;28;20033;-73
2023/07/26 10:32:06;;;;;;;15.57;7.80;;;;;;;22.79;75.26;101085.06;5044960;28;20033;-73
2023/07/26 10:34:31;;;;;;;14.30;8.00;;;;;;;22.62;74.76;101086.09;5043068;28;20264;-73
2023/07/26 10:36:57;;;;;;;10.75;7.28;;;;;;;22.62;73.39;101076.09;5043561;28;20096;-73
2023/07/26 10:39:33;;;;;;;12.30;6.95;;;;;;;23.15;72.58;101076.59;5044045;28;20890;-73
2023/07/26 10:42:00;;;;;;;10.20;7.03;;;;;;;23.52;72.29;101063.19;5045940;28;20033;-73
2023/07/26 10:44:25;;;;;;;12.10;7.82;;;;;;;23.22;67.38;101066.69;5043916;28;20048;-73
2023/07/26 10:47:00;;;;;;;11.98;7.53;;;;;;;22.86;65.90;101058.91;5046604;28;20735;-74
2023/07/26 10:49:30;;;;;;;10.68;7.80;;;;;;;22.47;69.78;101073.19;5042819;28;20153;-73
2023/07/26 10:52:04;;;;;;;12.70;8.93;;;;;;;21.79;74.73;101078.81;5045930;28;20102;-73
2023/07/26 10:54:38;;;;;;;11.65;8.60;;;;;;;20.75;82.80;101092.41;5042048;28;20112;-72
2023/07/26 10:57:15;;;;;;;18.30;10.38;;;;;;;19.60;99.35;101106.56;5041588;28;20033;-72
2023/07/26 11:00:08;;;;;;;15.55;11.30;;;;;;;18.85;100.00;101105.63;5035148;28;20045;-72
2023/07/26 11:02:47;;;;;;;16.20;12.30;;;;;;;18.76;100.00;101119.16;5043625;28;20237;-72
2023/07/26 11:05:16;;;;;;;18.35;10.98;;;;;;;18.92;100.00;101130.22;5044952;28;20037;-71
2023/07/26 11:08:01;;;;;;;14.60;10.95;;;;;;;18.87;100.00;101116.28;5046801;28;20038;-71
2023/07/26 11:10:34;;;;;;;8.45;6.38;;;;;;;18.70;100.00;101117.03;5045123;28;20187;-71
2023/07/26 11:13:38;;;;;;;9.23;6.20;;;;;;;18.96;100.00;101123.53;5037446;28;20619;-71
2023/07/26 11:16:03;;;;;;;11.07;6.75;;;;;;;18.93;100.00;101123.00;5024963;28;20049;-71